createdAt,value
2022-08-04T00:00:01.652Z,5.32
2022-08-04T00:02:34.372Z,4.95
2022-08-04T00:05:05.868Z,6.60
2022-08-04T00:07:51.875Z,5.10
2022-08-04T00:10:20.435Z,5.55
2022-08-04T00:12:53.138Z,6.40
2022-08-04T00:15:20.779Z,5.55
2022-08-04T00:18:00.236Z,5.32
2022-08-04T00:20:30.574Z,5.03
2022-08-04T00:22:58.180Z,5.10
2022-08-04T00:25:26.121Z,5.95
2022-08-04T00:27:53.632Z,5.65
2022-08-04T00:30:20.981Z,5.13
2022-08-04T00:32:51.060Z,5.45
2022-08-04T00:35:18.586Z,5.53
2022-08-04T00:37:46.282Z,5.82
2022-08-04T00:40:18.401Z,5.32
2022-08-04T00:42:58.335Z,5.57
2022-08-04T00:45:26.930Z,5.53
2022-08-04T00:48:10.173Z,6.03
2022-08-04T00:50:54.394Z,4.85
2022-08-04T00:53:40.568Z,4.72
2022-08-04T00:56:36.411Z,5.75
2022-08-04T00:59:07.499Z,5.20
2022-08-04T01:01:40.854Z,5.75
2022-08-04T01:04:22.338Z,5.82
2022-08-04T01:06:56.041Z,4.97
2022-08-04T01:09:26.895Z,5.82
2022-08-04T01:12:06.446Z,5.00
2022-08-04T01:14:33.635Z,6.22
2022-08-04T01:17:13.647Z,5.45
2022-08-04T01:20:02.092Z,5.50
2022-08-04T01:22:32.418Z,5.25
2022-08-04T01:25:11.961Z,4.72
2022-08-04T01:27:59.600Z,5.82
2022-08-04T01:30:28.064Z,4.88
2022-08-04T01:33:02.105Z,4.95
2022-08-04T01:35:47.844Z,4.60
2022-08-04T01:38:34.831Z,4.78
2022-08-04T01:41:06.521Z,5.05
2022-08-04T01:43:41.275Z,5.40
2022-08-04T01:46:10.896Z,5.90
2022-08-04T01:48:39.693Z,5.72
2022-08-04T01:51:08.643Z,5.90
2022-08-04T01:53:36.877Z,6.20
2022-08-04T01:56:04.869Z,5.70
2022-08-04T01:58:33.036Z,6.18
2022-08-04T02:01:08.292Z,5.57
2022-08-04T02:04:20.674Z,6.18
2022-08-04T02:06:33.679Z,5.80
2022-08-04T02:09:17.795Z,5.70
2022-08-04T02:11:49.217Z,5.80
2022-08-04T02:14:41.285Z,5.25
2022-08-04T02:17:15.782Z,6.32
2022-08-04T02:19:46.001Z,5.97
2022-08-04T02:22:18.088Z,5.93
2022-08-04T02:24:48.074Z,6.00
2022-08-04T02:27:15.557Z,5.97
2022-08-04T02:29:45.507Z,5.47
2022-08-04T02:32:26.641Z,6.00
2022-08-04T02:34:53.752Z,5.80
2022-08-04T02:37:21.704Z,5.28
2022-08-04T02:39:53.142Z,5.55
2022-08-04T02:42:20.826Z,5.40
2022-08-04T02:44:50.637Z,6.07
2022-08-04T02:47:20.362Z,5.80
2022-08-04T02:49:48.158Z,5.97
2022-08-04T02:52:15.523Z,6.50
2022-08-04T02:54:43.275Z,5.80
2022-08-04T02:57:12.122Z,4.78
2022-08-04T02:59:49.333Z,5.70
2022-08-04T03:02:17.821Z,6.28
2022-08-04T03:05:03.900Z,6.13
2022-08-04T03:07:49.584Z,5.95
2022-08-04T03:10:32.255Z,6.40
2022-08-04T03:12:59.379Z,5.70
2022-08-04T03:15:45.281Z,6.00
2022-08-04T03:18:21.593Z,5.45
2022-08-04T03:20:51.682Z,5.95
2022-08-04T03:23:37.734Z,5.00
2022-08-04T03:26:30.859Z,6.00
2022-08-04T03:29:15.939Z,5.65
2022-08-04T03:32:21.243Z,5.70
2022-08-04T03:34:54.904Z,5.80
2022-08-04T03:37:28.296Z,5.65
2022-08-04T03:40:14.163Z,6.25
2022-08-04T03:42:53.624Z,5.25
2022-08-04T03:45:36.519Z,4.80
2022-08-04T03:50:36.200Z,4.43
2022-08-04T03:53:31.091Z,4.88
2022-08-04T03:56:25.878Z,5.13
2022-08-04T03:58:55.248Z,4.50
2022-08-04T04:01:25.205Z,5.03
2022-08-04T04:04:11.300Z,4.30
2022-08-04T04:06:57.222Z,4.47
2022-08-04T04:09:56.763Z,4.40
2022-08-04T04:12:50.241Z,4.63
2022-08-04T04:15:23.525Z,4.50
2022-08-04T04:18:10.034Z,5.05
2022-08-04T04:20:59.124Z,4.90
2022-08-04T04:23:47.692Z,4.90
2022-08-04T04:26:14.825Z,5.13
2022-08-04T04:29:05.014Z,4.70
2022-08-04T04:31:35.911Z,4.72
2022-08-04T04:34:03.023Z,4.97
2022-08-04T04:36:39.191Z,4.60
2022-08-04T04:39:12.596Z,4.30
2022-08-04T04:41:49.153Z,4.35
2022-08-04T04:44:35.334Z,4.20
2022-08-04T04:47:10.491Z,4.90
2022-08-04T04:49:50.331Z,4.82
2022-08-04T04:52:24.849Z,5.22
2022-08-04T04:55:03.422Z,5.43
2022-08-04T04:57:52.628Z,5.30
2022-08-04T05:00:19.392Z,5.20
2022-08-04T05:02:46.563Z,5.57
2022-08-04T05:05:22.613Z,4.72
2022-08-04T05:07:57.612Z,4.82
2022-08-04T05:10:43.468Z,5.10
2022-08-04T05:14:34.553Z,4.80
2022-08-04T05:16:15.997Z,4.50
2022-08-04T05:18:45.414Z,4.78
2022-08-04T05:21:14.971Z,5.38
2022-08-04T05:23:45.257Z,4.65
2022-08-04T05:26:13.866Z,4.72
2022-08-04T05:28:42.326Z,4.53
2022-08-04T05:31:14.628Z,4.72
2022-08-04T05:33:44.069Z,3.75
2022-08-04T05:36:18.840Z,4.03
2022-08-04T05:38:51.841Z,4.55
2022-08-04T05:41:19.716Z,4.15
2022-08-04T05:43:47.513Z,3.60
2022-08-04T05:46:16.238Z,4.15
2022-08-04T05:48:45.472Z,3.22
2022-08-04T05:51:13.197Z,3.47
2022-08-04T05:53:44.234Z,3.33
2022-08-04T05:56:12.857Z,3.92
2022-08-04T05:58:40.523Z,3.75
2022-08-04T06:01:09.241Z,3.78
2022-08-04T06:03:37.385Z,3.55
2022-08-04T06:06:04.967Z,3.58
2022-08-04T06:08:32.359Z,3.22
2022-08-04T06:11:02.549Z,3.25
2022-08-04T06:13:48.531Z,3.10
2022-08-04T06:16:29.615Z,3.22
2022-08-04T06:20:00.686Z,3.10
2022-08-04T06:21:52.240Z,2.95
2022-08-04T06:24:25.565Z,4.85
2022-08-04T06:26:52.954Z,2.97
2022-08-04T06:29:26.767Z,2.92
2022-08-04T06:32:30.273Z,2.70
2022-08-04T06:34:45.716Z,2.60
2022-08-04T06:37:23.223Z,2.75
2022-08-04T06:40:01.068Z,2.67
2022-08-04T06:42:28.350Z,3.00
2022-08-04T06:44:58.291Z,2.85
2022-08-04T06:47:25.945Z,2.95
2022-08-04T06:51:28.021Z,2.55
2022-08-04T06:52:42.016Z,2.53
2022-08-04T06:55:09.390Z,2.90
2022-08-04T06:57:37.402Z,2.47
2022-08-04T07:00:11.243Z,2.65
2022-08-04T07:02:54.081Z,2.83
2022-08-04T07:05:22.050Z,2.70
2022-08-04T07:07:56.917Z,3.35
2022-08-04T07:10:26.243Z,2.55
2022-08-04T07:12:54.004Z,2.83
2022-08-04T07:15:21.570Z,3.40
2022-08-04T07:17:52.036Z,3.50
2022-08-04T07:20:34.741Z,3.55
2022-08-04T07:23:03.403Z,3.35
2022-08-04T07:25:57.162Z,3.92
2022-08-04T07:28:17.936Z,2.90
2022-08-04T07:30:45.833Z,3.15
2022-08-04T07:33:13.027Z,3.70
2022-08-04T07:36:10.191Z,2.95
2022-08-04T07:38:27.978Z,3.58
2022-08-04T07:40:55.962Z,3.35
2022-08-04T07:43:23.456Z,3.15
2022-08-04T07:45:50.747Z,3.47
2022-08-04T07:48:18.918Z,3.70
2022-08-04T07:50:47.578Z,3.47
2022-08-04T07:53:54.678Z,4.22
2022-08-04T07:56:03.467Z,3.40
2022-08-04T07:58:30.765Z,3.55
2022-08-04T08:00:58.297Z,3.38
2022-08-04T08:03:26.134Z,3.45
2022-08-04T08:05:54.846Z,3.45
2022-08-04T08:08:40.934Z,3.67
2022-08-04T08:11:09.295Z,4.05
2022-08-04T08:13:37.133Z,3.60
2022-08-04T08:16:04.981Z,3.75
2022-08-04T08:18:32.550Z,3.88
2022-08-04T08:20:59.813Z,3.60
2022-08-04T08:23:27.133Z,3.53
2022-08-04T08:25:54.280Z,4.13
2022-08-04T08:28:21.426Z,3.45
2022-08-04T08:30:52.800Z,3.28
2022-08-04T08:33:21.190Z,3.83
2022-08-04T08:36:00.540Z,3.67
2022-08-04T08:38:46.656Z,3.90
2022-08-04T08:41:19.791Z,3.60
2022-08-04T08:44:05.824Z,4.15
2022-08-04T08:46:54.269Z,3.30
2022-08-04T08:50:01.667Z,3.65
2022-08-04T08:52:57.357Z,4.22
2022-08-04T08:55:31.220Z,3.28
2022-08-04T08:58:04.376Z,3.90
2022-08-04T09:00:32.100Z,3.22
2022-08-04T09:03:10.796Z,3.28
2022-08-04T09:05:40.633Z,3.47
2022-08-04T09:08:07.732Z,3.90
2022-08-04T09:10:39.932Z,3.72
2022-08-04T09:13:11.232Z,3.65
2022-08-04T09:15:42.375Z,3.72
2022-08-04T09:18:32.497Z,3.50
2022-08-04T09:21:18.481Z,3.50
2022-08-04T09:24:04.226Z,4.20
2022-08-04T09:27:11.519Z,3.60
2022-08-04T09:29:58.849Z,3.75
2022-08-04T09:32:38.227Z,3.47
2022-08-04T09:35:13.353Z,3.70
2022-08-04T09:37:54.822Z,3.80
2022-08-04T09:40:31.333Z,3.60
2022-08-04T09:43:59.173Z,3.67
2022-08-04T09:46:28.906Z,3.45
2022-08-04T09:48:59.051Z,3.50
2022-08-04T09:51:58.110Z,3.45
2022-08-04T09:54:45.019Z,3.60
2022-08-04T09:57:18.251Z,3.28
2022-08-04T09:59:58.375Z,3.58
2022-08-04T10:04:53.966Z,3.45
2022-08-04T10:07:27.099Z,4.40
2022-08-04T10:10:14.491Z,3.60
2022-08-04T10:12:58.323Z,3.55
2022-08-04T10:15:37.162Z,3.70
2022-08-04T10:18:22.828Z,3.72
2022-08-04T10:20:59.981Z,3.85
2022-08-04T10:23:55.852Z,3.72
2022-08-04T10:26:27.389Z,3.78
2022-08-04T10:28:57.482Z,3.10
2022-08-04T10:31:29.770Z,3.35
2022-08-04T10:34:17.530Z,3.70
2022-08-04T10:37:05.407Z,3.65
2022-08-04T10:40:04.199Z,3.50
2022-08-04T10:42:31.535Z,3.30
2022-08-04T10:45:07.661Z,3.22
2022-08-04T10:47:38.660Z,3.22
2022-08-04T10:50:06.385Z,3.60
2022-08-04T10:52:47.870Z,3.30
2022-08-04T10:55:22.661Z,2.72
2022-08-04T10:58:12.250Z,2.90
2022-08-04T11:00:40.944Z,3.20
2022-08-04T11:03:11.198Z,3.17
2022-08-04T11:05:44.659Z,3.33
2022-08-04T11:08:21.672Z,3.22
2022-08-04T11:10:56.195Z,2.60
2022-08-04T11:13:30.239Z,3.40
2022-08-04T11:15:59.580Z,2.97
2022-08-04T11:18:33.387Z,3.20
2022-08-04T11:21:03.344Z,2.70
2022-08-04T11:23:36.145Z,2.92
2022-08-04T11:26:16.945Z,2.58
2022-08-04T11:28:44.288Z,3.17
2022-08-04T11:31:14.543Z,3.55
2022-08-04T11:34:00.185Z,3.00
2022-08-04T11:36:46.689Z,2.97
2022-08-04T11:39:13.935Z,2.92
2022-08-04T11:41:57.850Z,2.70
2022-08-04T11:44:33.543Z,2.38
2022-08-04T11:47:03.303Z,2.72
2022-08-04T11:49:56.095Z,2.85
2022-08-04T11:52:21.809Z,2.38
2022-08-04T11:54:52.429Z,2.40
2022-08-04T11:57:22.041Z,2.40
2022-08-04T11:59:56.325Z,2.80
2022-08-04T12:02:31.235Z,2.67
2022-08-04T12:05:04.866Z,2.83
2022-08-04T12:10:12.883Z,2.83
2022-08-04T12:12:44.714Z,2.40
2022-08-04T12:18:02.621Z,2.90
2022-08-04T12:20:40.483Z,2.45
2022-08-04T12:23:14.864Z,2.80
2022-08-04T12:25:45.399Z,2.30
2022-08-04T12:28:19.107Z,2.30
2022-08-04T12:31:00.601Z,2.78
2022-08-04T12:34:03.841Z,2.58
2022-08-04T12:36:32.066Z,2.88
2022-08-04T12:39:13.239Z,2.35
2022-08-04T12:41:42.906Z,2.50
2022-08-04T12:44:33.458Z,2.55
2022-08-04T12:47:26.446Z,2.70
2022-08-04T12:50:00.958Z,2.28
2022-08-04T12:55:17.600Z,2.63
2022-08-04T12:57:45.097Z,2.53
2022-08-04T13:00:12.662Z,2.40
2022-08-04T13:02:44.676Z,1.92
2022-08-04T13:05:16.823Z,2.03
2022-08-04T13:07:48.336Z,2.22
2022-08-04T13:10:17.639Z,2.77
2022-08-04T13:12:52.870Z,2.63
2022-08-04T13:15:22.551Z,2.40
2022-08-04T13:17:57.080Z,2.72
2022-08-04T13:20:28.809Z,2.42
2022-08-04T13:23:01.485Z,2.40
2022-08-04T13:26:42.295Z,2.47
2022-08-04T13:28:20.888Z,2.47
2022-08-04T13:30:49.654Z,1.95
2022-08-04T13:33:17.681Z,2.50
2022-08-04T13:35:56.096Z,2.20
2022-08-04T13:38:24.729Z,2.13
2022-08-04T13:40:52.353Z,2.42
2022-08-04T13:44:16.216Z,2.45
2022-08-04T13:46:27.978Z,2.33
2022-08-04T13:51:57.972Z,2.17
2022-08-04T13:54:27.038Z,2.00
2022-08-04T13:57:01.227Z,2.05
2022-08-04T14:02:00.857Z,2.20
2022-08-04T14:04:28.877Z,2.10
2022-08-04T14:07:04.027Z,2.13
2022-08-04T14:09:35.349Z,2.20
2022-08-04T14:12:38.628Z,1.98
2022-08-04T14:15:00.134Z,1.98
2022-08-04T14:17:29.965Z,2.28
2022-08-04T14:19:59.944Z,1.90
2022-08-04T14:22:29.811Z,2.00
2022-08-04T14:24:57.244Z,2.05
2022-08-04T14:27:24.796Z,2.28
2022-08-04T14:29:52.211Z,2.15
2022-08-04T14:32:21.544Z,2.50
2022-08-04T14:34:51.390Z,2.10
2022-08-04T14:37:22.981Z,2.28
2022-08-04T14:40:19.072Z,2.20
2022-08-04T14:42:53.849Z,2.22
2022-08-04T14:45:30.462Z,2.20
2022-08-04T14:47:57.896Z,2.30
2022-08-04T14:50:40.440Z,2.33
2022-08-04T14:53:09.754Z,2.15
2022-08-04T14:55:37.939Z,2.45
2022-08-04T14:58:35.263Z,2.15
2022-08-04T15:00:59.271Z,2.30
2022-08-04T15:03:26.840Z,2.00
2022-08-04T15:06:05.482Z,2.40
2022-08-04T15:08:34.297Z,2.17
2022-08-04T15:11:03.270Z,2.30
2022-08-04T15:13:32.475Z,2.13
2022-08-04T15:16:07.596Z,2.00
2022-08-04T15:18:36.839Z,2.10
2022-08-04T15:21:04.994Z,2.00
2022-08-04T15:23:39.410Z,2.20
2022-08-04T15:26:08.387Z,2.08
2022-08-04T15:28:36.635Z,2.15
2022-08-04T15:31:05.214Z,2.40
2022-08-04T15:33:41.903Z,2.20
2022-08-04T15:36:11.230Z,1.85
2022-08-04T15:38:58.593Z,1.90
2022-08-04T15:41:36.621Z,1.88
2022-08-04T15:44:22.406Z,1.80
2022-08-04T15:46:49.569Z,2.15
2022-08-04T15:49:22.664Z,1.83
2022-08-04T15:52:11.767Z,2.15
2022-08-04T15:54:52.593Z,1.70
2022-08-04T15:57:40.145Z,2.08
2022-08-04T16:00:12.707Z,1.90
2022-08-04T16:02:43.785Z,1.67
2022-08-04T16:05:18.586Z,1.90
2022-08-04T16:07:59.860Z,1.88
2022-08-04T16:10:32.797Z,1.88
2022-08-04T16:15:40.279Z,1.85
2022-08-04T16:18:13.801Z,1.85
2022-08-04T16:20:56.596Z,2.08
2022-08-04T16:23:52.967Z,2.10
2022-08-04T16:26:45.182Z,1.70
2022-08-04T16:29:31.900Z,1.98
2022-08-04T16:32:04.976Z,2.33
2022-08-04T16:34:47.833Z,2.20
2022-08-04T16:37:19.082Z,2.10
2022-08-04T16:39:50.255Z,2.20
2022-08-04T16:42:30.886Z,1.80
2022-08-04T16:45:04.066Z,2.15
2022-08-04T16:47:45.973Z,2.20
2022-08-04T16:52:46.751Z,2.35
2022-08-04T16:55:21.148Z,1.98
2022-08-04T16:57:48.736Z,2.30
2022-08-04T17:00:16.494Z,2.20
2022-08-04T17:02:46.037Z,2.10
2022-08-04T17:05:38.208Z,2.42
2022-08-04T17:08:29.098Z,2.20
2022-08-04T17:10:54.924Z,2.20
2022-08-04T17:14:03.882Z,2.10
2022-08-04T17:16:22.517Z,2.50
2022-08-04T17:18:51.449Z,2.40
2022-08-04T17:21:20.289Z,2.35
2022-08-04T17:24:14.403Z,2.10
2022-08-04T17:26:39.422Z,2.10
2022-08-04T17:29:09.167Z,2.25
2022-08-04T17:31:38.057Z,2.20
2022-08-04T17:34:16.606Z,2.08
2022-08-04T17:36:47.573Z,2.20
2022-08-04T17:39:21.403Z,2.22
2022-08-04T17:41:49.553Z,2.17
2022-08-04T17:44:17.652Z,2.55
2022-08-04T17:46:48.535Z,2.30
2022-08-04T17:49:18.943Z,2.05
2022-08-04T17:52:06.758Z,2.35
2022-08-04T17:54:40.166Z,2.10
2022-08-04T17:57:19.373Z,2.10
2022-08-04T17:59:56.122Z,1.83
2022-08-04T18:02:32.247Z,2.42
2022-08-04T18:05:07.785Z,2.17
2022-08-04T18:08:39.534Z,1.88
2022-08-04T18:10:51.519Z,2.15
2022-08-04T18:13:23.140Z,2.30
2022-08-04T18:15:51.155Z,2.10
2022-08-04T18:18:22.766Z,2.22
2022-08-04T18:20:50.568Z,1.90
2022-08-04T18:23:17.706Z,2.30
2022-08-04T18:25:51.460Z,2.60
2022-08-04T18:28:26.502Z,2.38
2022-08-04T18:30:55.559Z,2.35
2022-08-04T18:33:37.868Z,1.90
2022-08-04T18:36:35.387Z,2.08
2022-08-04T18:38:58.114Z,2.67
2022-08-04T18:41:25.611Z,2.67
2022-08-04T18:43:56.010Z,2.88
2022-08-04T18:46:26.915Z,2.70
2022-08-04T18:48:54.473Z,3.55
2022-08-04T18:51:25.121Z,2.58
2022-08-04T18:53:59.209Z,3.58
2022-08-04T18:56:32.407Z,3.30
2022-08-04T18:59:04.588Z,3.65
2022-08-04T19:02:17.017Z,3.83
2022-08-04T19:07:28.791Z,3.03
2022-08-04T19:09:59.725Z,3.45
2022-08-04T19:15:19.019Z,2.88
2022-08-04T19:17:55.175Z,3.17
2022-08-04T19:20:26.334Z,3.42
2022-08-04T19:24:11.513Z,2.92
2022-08-04T19:26:01.343Z,3.03
2022-08-04T19:28:33.944Z,3.30
2022-08-04T19:31:02.176Z,3.50
2022-08-04T19:33:59.641Z,3.30
2022-08-04T19:36:17.251Z,3.38
2022-08-04T19:38:45.205Z,3.50
2022-08-04T19:41:14.583Z,3.25
2022-08-04T19:43:43.613Z,4.43
2022-08-04T19:46:12.144Z,4.47
2022-08-04T19:48:39.636Z,3.80
2022-08-04T19:51:07.791Z,3.95
2022-08-04T19:53:37.554Z,4.47
2022-08-04T19:56:05.530Z,3.92
2022-08-04T19:58:32.579Z,4.60
2022-08-04T20:00:59.683Z,4.32
2022-08-04T20:04:09.696Z,4.60
2022-08-04T20:06:14.112Z,3.97
2022-08-04T20:08:48.561Z,3.53
2022-08-04T20:11:16.460Z,3.80
2022-08-04T20:13:45.549Z,3.75
2022-08-04T20:16:29.359Z,3.13
2022-08-04T20:19:02.745Z,3.50
2022-08-04T20:21:53.629Z,3.50
2022-08-04T20:24:38.645Z,3.78
2022-08-04T20:27:07.768Z,4.07
2022-08-04T20:29:41.133Z,4.07
2022-08-04T20:32:10.577Z,3.80
2022-08-04T20:34:40.223Z,3.40
2022-08-04T20:37:10.034Z,3.85
2022-08-04T20:39:37.835Z,3.92
2022-08-04T20:42:05.099Z,4.47
2022-08-04T20:44:33.844Z,3.55
2022-08-04T20:47:01.542Z,3.70
2022-08-04T20:49:34.837Z,3.60
2022-08-04T20:52:12.173Z,3.60
2022-08-04T20:54:42.266Z,3.80
2022-08-04T20:57:16.659Z,3.65
2022-08-04T20:59:50.340Z,3.58
2022-08-04T21:02:27.393Z,3.13
2022-08-04T21:04:54.531Z,3.10
2022-08-04T21:07:24.088Z,3.25
2022-08-04T21:09:51.923Z,3.13
2022-08-04T21:12:28.370Z,3.13
2022-08-04T21:14:56.952Z,3.20
2022-08-04T21:17:58.617Z,3.63
2022-08-04T21:20:12.899Z,2.70
2022-08-04T21:22:40.772Z,2.78
2022-08-04T21:25:16.209Z,2.72
2022-08-04T21:27:43.805Z,2.20
2022-08-04T21:30:24.212Z,2.80
2022-08-04T21:32:55.372Z,2.40
2022-08-04T21:35:36.683Z,2.40
2022-08-04T21:38:17.298Z,2.40
2022-08-04T21:40:53.509Z,2.05
2022-08-04T21:43:23.660Z,2.17
2022-08-04T21:45:55.092Z,2.40
2022-08-04T21:48:22.978Z,2.53
2022-08-04T21:50:51.034Z,2.42
2022-08-04T21:53:19.632Z,2.75
2022-08-04T21:56:06.982Z,2.60
2022-08-04T21:58:34.777Z,2.42
2022-08-04T22:01:05.923Z,2.63
2022-08-04T22:03:52.780Z,2.30
2022-08-04T22:06:28.232Z,2.72
2022-08-04T22:08:56.879Z,3.00
2022-08-04T22:11:43.859Z,2.53
2022-08-04T22:14:16.557Z,2.70
2022-08-04T22:16:45.278Z,2.22
2022-08-04T22:19:13.690Z,3.03
2022-08-04T22:21:45.293Z,2.33
2022-08-04T22:24:14.535Z,2.40
2022-08-04T22:26:42.204Z,2.45
2022-08-04T22:29:14.227Z,2.50
2022-08-04T22:31:55.707Z,2.35
2022-08-04T22:34:24.646Z,3.03
2022-08-04T22:36:53.724Z,2.60
2022-08-04T22:39:23.670Z,2.50
2022-08-04T22:42:04.089Z,2.45
2022-08-04T22:44:33.102Z,3.13
2022-08-04T22:47:00.941Z,2.50
2022-08-04T22:49:31.744Z,2.60
2022-08-04T22:51:59.235Z,2.90
2022-08-04T22:54:29.769Z,2.90
2022-08-04T22:59:25.857Z,3.28
2022-08-04T23:02:00.911Z,2.60
2022-08-04T23:04:29.468Z,2.80
2022-08-04T23:06:56.536Z,2.53
2022-08-04T23:09:49.192Z,3.05
2022-08-04T23:12:27.529Z,2.88
2022-08-04T23:14:56.132Z,3.08
2022-08-04T23:17:24.101Z,3.08
2022-08-04T23:19:57.488Z,2.90
2022-08-04T23:22:41.166Z,2.70
2022-08-04T23:25:15.209Z,3.33
2022-08-04T23:27:51.234Z,3.00
2022-08-04T23:30:21.900Z,3.13
2022-08-04T23:32:52.890Z,3.17
2022-08-04T23:35:22.194Z,3.38
2022-08-04T23:37:57.866Z,2.88
2022-08-04T23:40:32.391Z,3.50
2022-08-04T23:43:01.852Z,3.70
2022-08-04T23:46:06.558Z,2.85
2022-08-04T23:48:19.245Z,3.33
2022-08-04T23:50:48.008Z,2.65
2022-08-04T23:53:18.716Z,3.15
2022-08-04T23:55:49.980Z,3.10
2022-08-04T23:58:20.909Z,3.03
